Time;durP1;ratioP1;P1;durP2;ratioP2;P2;SDS_P1;SDS_P2;PMS_P1;PMS_P2;Temp;Humidity;BMP_temperature;BMP_pressure;BME280_temperature;BME280_humidity;BME280_pressure;Samples;Min_cycle;Max_cycle;Signal;HPM_P1;HPM_P2
2021/07/29 00:01:40;;;;;;;7.95;6.95;;;18.30;99.90;;;;;;5069841;28;20378;-87
2021/07/29 00:04:06;;;;;;;7.30;6.13;;;18.40;99.90;;;;;;5052347;28;20385;-87
2021/07/29 00:06:32;;;;;;;8.07;6.37;;;18.50;99.90;;;;;;5052286;28;20868;-87
2021/07/29 00:08:58;;;;;;;8.43;6.68;;;18.60;99.90;;;;;;5052038;28;20374;-85
2021/07/29 00:11:23;;;;;;;7.43;6.32;;;18.50;99.90;;;;;;5049575;28;20375;-87
2021/07/29 00:13:57;;;;;;;7.80;6.50;;;18.50;99.90;;;;;;5052216;28;20473;-86
2021/07/29 00:16:23;;;;;;;8.00;6.90;;;18.40;99.90;;;;;;5051953;28;20381;-88
2021/07/29 00:19:04;;;;;;;7.65;6.80;;;18.40;99.90;;;;;;5052398;28;20906;-87
2021/07/29 00:21:35;;;;;;;7.35;6.57;;;18.40;99.90;;;;;;5050609;28;20786;-87
2021/07/29 00:24:00;;;;;;;9.55;6.90;;;18.30;99.90;;;;;;5069345;28;20374;-87
2021/07/29 00:26:27;;;;;;;7.88;6.47;;;18.30;99.90;;;;;;5051456;28;20386;-88
2021/07/29 00:28:53;;;;;;;8.18;7.15;;;18.20;99.90;;;;;;5051603;28;20459;-88
2021/07/29 00:31:18;;;;;;;7.30;6.60;;;18.30;99.90;;;;;;5051764;28;20496;-86
2021/07/29 00:33:46;;;;;;;7.73;7.00;;;18.30;99.90;;;;;;5069455;28;20916;-88
2021/07/29 00:36:22;;;;;;;7.90;7.18;;;18.30;99.90;;;;;;5051865;28;20443;-88
2021/07/29 00:38:47;;;;;;;7.63;6.75;;;18.30;99.90;;;;;;5066406;28;20382;-87
2021/07/29 00:41:16;;;;;;;7.80;7.10;;;18.30;99.90;;;;;;5051121;28;20385;-86
2021/07/29 00:43:42;;;;;;;8.35;7.47;;;18.30;99.90;;;;;;5051348;28;20887;-85
2021/07/29 00:46:08;;;;;;;7.88;7.07;;;18.30;99.90;;;;;;5052061;28;20790;-88
2021/07/29 00:48:34;;;;;;;7.78;6.97;;;18.30;99.90;;;;;;5051773;28;20954;-87
2021/07/29 00:51:01;;;;;;;7.97;7.27;;;18.30;99.90;;;;;;5069821;28;20381;-85
2021/07/29 00:53:29;;;;;;;8.40;7.68;;;18.40;99.90;;;;;;5051535;28;20406;-85
2021/07/29 00:55:56;;;;;;;7.82;7.03;;;18.40;99.90;;;;;;5051626;28;20382;-86
2021/07/29 00:58:22;;;;;;;7.60;6.90;;;18.40;99.90;;;;;;5051346;28;20539;-85
2021/07/29 01:00:48;;;;;;;8.37;7.20;;;18.40;99.90;;;;;;5051855;28;20717;-86
2021/07/29 01:03:14;;;;;;;8.43;7.30;;;18.30;99.90;;;;;;5052092;28;20435;-87
2021/07/29 01:05:41;;;;;;;9.57;7.40;;;18.40;99.90;;;;;;5051625;28;20378;-88
2021/07/29 01:08:07;;;;;;;7.70;7.00;;;18.40;99.90;;;;;;5051675;28;20382;-86
2021/07/29 01:10:35;;;;;;;8.57;6.80;;;18.30;99.90;;;;;;5051544;28;20374;-88
2021/07/29 01:13:00;;;;;;;9.05;7.28;;;18.30;99.90;;;;;;5051348;28;20745;-85
2021/07/29 01:15:26;;;;;;;7.93;7.13;;;18.20;99.90;;;;;;5051552;28;20388;-87
2021/07/29 01:17:57;;;;;;;8.45;7.63;;;18.10;99.90;;;;;;5051327;28;20377;-88
2021/07/29 01:20:23;;;;;;;8.95;7.72;;;18.00;99.90;;;;;;5051208;28;20389;-87
2021/07/29 01:22:48;;;;;;;8.10;7.30;;;17.90;99.90;;;;;;5051452;28;20390;-86
2021/07/29 01:25:14;;;;;;;8.60;7.20;;;17.90;99.90;;;;;;5051365;28;20377;-89
2021/07/29 01:27:40;;;;;;;8.23;7.43;;;17.80;99.90;;;;;;5051501;28;20428;-88
2021/07/29 01:30:06;;;;;;;8.40;7.50;;;17.70;99.90;;;;;;5051758;28;20457;-89
2021/07/29 01:32:31;;;;;;;10.02;7.78;;;17.60;99.90;;;;;;5051421;28;20864;-89
2021/07/29 01:34:58;;;;;;;10.30;7.53;;;17.50;99.90;;;;;;5051798;28;20389;-88
2021/07/29 01:37:24;;;;;;;8.60;7.70;;;17.40;99.90;;;;;;5052063;28;20905;-89
2021/07/29 01:39:50;;;;;;;8.77;7.50;;;17.20;99.90;;;;;;5051782;28;20469;-88
2021/07/29 01:42:15;;;;;;;11.47;7.60;;;17.20;99.90;;;;;;5051217;28;20458;-87
2021/07/29 01:44:41;;;;;;;8.48;7.68;;;17.10;99.90;;;;;;5051083;28;20385;-87
2021/07/29 01:47:07;;;;;;;8.17;7.40;;;17.00;99.90;;;;;;5050982;28;20736;-87
2021/07/29 01:49:32;;;;;;;9.98;7.93;;;16.90;99.90;;;;;;5051095;28;20974;-87
2021/07/29 01:51:58;;;;;;;9.07;8.17;;;16.80;99.90;;;;;;5051374;28;20872;-88
2021/07/29 01:54:24;;;;;;;9.52;7.70;;;16.70;99.90;;;;;;5051088;28;20433;-88
2021/07/29 01:56:49;;;;;;;10.35;8.48;;;16.70;99.90;;;;;;5051315;28;20382;-88
2021/07/29 01:59:15;;;;;;;9.47;8.03;;;16.50;99.90;;;;;;5069215;28;20864;-87
2021/07/29 02:01:41;;;;;;;10.73;8.85;;;16.50;99.90;;;;;;5050926;28;21463;-88
2021/07/29 02:04:07;;;;;;;11.63;9.17;;;16.40;99.90;;;;;;5068999;28;20382;-88
2021/07/29 02:06:35;;;;;;;11.07;9.07;;;16.40;99.90;;;;;;5051100;28;20431;-86
2021/07/29 02:09:01;;;;;;;10.95;9.13;;;16.30;99.90;;;;;;5051129;28;20393;-86
2021/07/29 02:11:30;;;;;;;10.27;9.20;;;16.30;99.90;;;;;;5053686;28;20748;-87
2021/07/29 02:13:57;;;;;;;11.43;9.10;;;16.30;99.90;;;;;;5073139;28;20550;-87
2021/07/29 02:16:23;;;;;;;11.17;9.20;;;16.30;99.90;;;;;;5055231;28;20382;-88
2021/07/29 02:18:48;;;;;;;10.68;9.57;;;16.20;99.90;;;;;;5054818;28;20381;-88
2021/07/29 02:21:14;;;;;;;10.38;9.35;;;16.30;99.90;;;;;;5055167;28;20887;-86
2021/07/29 02:23:40;;;;;;;12.03;9.37;;;16.20;99.90;;;;;;5054898;28;20412;-87
2021/07/29 02:26:06;;;;;;;11.70;9.88;;;16.20;99.90;;;;;;5054919;28;20420;-86
2021/07/29 02:28:31;;;;;;;15.02;9.43;;;16.20;99.90;;;;;;5054793;28;20843;-88
2021/07/29 02:30:57;;;;;;;9.70;8.50;;;16.10;99.90;;;;;;5072296;28;20397;-87
2021/07/29 02:33:23;;;;;;;9.90;9.00;;;16.20;99.90;;;;;;5054333;28;20402;-87
2021/07/29 02:35:49;;;;;;;10.27;9.27;;;16.20;99.90;;;;;;5054796;28;20374;-88
2021/07/29 02:38:15;;;;;;;11.00;9.20;;;16.10;99.90;;;;;;5054475;28;20422;-85
2021/07/29 02:40:41;;;;;;;10.05;8.50;;;16.10;99.90;;;;;;5072274;28;20409;-86
2021/07/29 02:43:07;;;;;;;10.98;9.88;;;16.00;99.90;;;;;;5054824;28;20397;-89
2021/07/29 02:45:33;;;;;;;10.97;8.90;;;16.00;99.90;;;;;;5054562;28;20382;-87
2021/07/29 02:47:58;;;;;;;10.20;9.20;;;16.00;99.90;;;;;;5072373;28;20378;-88
2021/07/29 02:50:24;;;;;;;12.37;8.70;;;16.00;99.90;;;;;;5057717;28;20366;-87
2021/07/29 02:52:49;;;;;;;10.05;8.95;;;16.00;99.90;;;;;;5054486;28;20743;-87
2021/07/29 02:55:15;;;;;;;12.33;9.13;;;16.00;99.90;;;;;;5054039;28;20666;-87
2021/07/29 02:57:40;;;;;;;11.07;9.38;;;16.00;99.90;;;;;;5053858;28;20382;-87
2021/07/29 03:00:06;;;;;;;10.43;8.63;;;16.00;99.90;;;;;;5054055;28;20381;-87
2021/07/29 03:02:32;;;;;;;10.25;8.75;;;16.00;99.90;;;;;;5071914;28;20362;-88
2021/07/29 03:04:57;;;;;;;12.82;10.20;;;16.00;99.90;;;;;;5071667;28;20447;-86
2021/07/29 03:07:23;;;;;;;11.00;9.70;;;16.00;99.90;;;;;;5054048;28;20409;-87
2021/07/29 03:09:49;;;;;;;11.77;9.57;;;15.90;99.90;;;;;;5071787;28;20382;-86
2021/07/29 03:12:14;;;;;;;11.83;9.93;;;15.90;99.90;;;;;;5054015;28;20371;-85
2021/07/29 03:14:40;;;;;;;10.30;9.20;;;15.90;99.90;;;;;;5071493;28;20521;-87
2021/07/29 03:17:05;;;;;;;13.30;9.67;;;15.80;99.90;;;;;;5053751;28;20382;-85
2021/07/29 03:19:31;;;;;;;12.48;9.15;;;15.80;99.90;;;;;;5071537;28;20370;-86
2021/07/29 03:21:57;;;;;;;12.80;9.90;;;15.80;99.90;;;;;;5053152;28;20375;-86
2021/07/29 03:24:22;;;;;;;13.40;9.50;;;15.70;99.90;;;;;;5053402;28;20381;-86
2021/07/29 03:26:48;;;;;;;13.02;9.50;;;15.60;99.90;;;;;;5053783;28;20385;-87
2021/07/29 03:29:14;;;;;;;10.43;9.33;;;15.60;99.90;;;;;;5053459;28;20930;-86
2021/07/29 03:31:40;;;;;;;10.18;9.18;;;15.60;99.90;;;;;;5053782;28;20751;-87
2021/07/29 03:34:05;;;;;;;11.90;9.88;;;15.60;99.90;;;;;;5071611;28;20402;-86
2021/07/29 03:36:31;;;;;;;12.00;9.60;;;15.60;99.90;;;;;;5053190;28;20382;-86
2021/07/29 03:38:56;;;;;;;12.85;10.05;;;15.50;99.90;;;;;;5053793;28;20460;-85
2021/07/29 03:41:22;;;;;;;12.20;9.97;;;15.50;99.90;;;;;;5071312;28;20891;-85
2021/07/29 03:43:48;;;;;;;14.17;10.17;;;15.50;99.90;;;;;;5071519;28;20930;-85
2021/07/29 03:46:13;;;;;;;11.17;9.70;;;15.60;99.90;;;;;;5052972;28;20782;-85
2021/07/29 03:48:39;;;;;;;11.68;10.40;;;15.50;99.90;;;;;;5052947;28;20967;-85
2021/07/29 03:51:04;;;;;;;11.43;10.00;;;15.60;99.90;;;;;;5053497;28;20748;-86
2021/07/29 03:53:30;;;;;;;11.27;10.10;;;15.60;99.90;;;;;;5052970;28;20413;-86
2021/07/29 03:55:55;;;;;;;11.90;10.63;;;15.60;99.90;;;;;;5052939;28;20745;-85
2021/07/29 03:58:21;;;;;;;11.80;10.57;;;15.60;99.90;;;;;;5052825;28;20413;-86
2021/07/29 04:00:47;;;;;;;10.70;9.68;;;15.70;99.90;;;;;;5053076;28;20383;-86
2021/07/29 04:03:12;;;;;;;10.40;9.40;;;15.70;99.90;;;;;;5053063;28;20465;-85
2021/07/29 04:05:38;;;;;;;10.95;9.50;;;15.70;99.90;;;;;;5070701;28;20374;-87
2021/07/29 04:08:04;;;;;;;10.97;9.87;;;15.70;99.90;;;;;;5053101;28;20383;-87
2021/07/29 04:10:30;;;;;;;10.30;9.30;;;15.80;99.90;;;;;;5052972;28;20744;-90
2021/07/29 04:12:55;;;;;;;10.48;9.25;;;15.80;99.90;;;;;;5052824;28;20386;-88
2021/07/29 04:15:21;;;;;;;9.67;8.67;;;15.80;99.90;;;;;;5070730;28;20807;-87
2021/07/29 04:17:46;;;;;;;10.32;9.32;;;15.90;99.90;;;;;;5052658;28;20432;-88
2021/07/29 04:20:12;;;;;;;10.13;8.67;;;15.90;99.90;;;;;;5052565;28;20390;-87
2021/07/29 04:22:38;;;;;;;9.57;8.38;;;16.00;99.90;;;;;;5053021;28;20372;-87
2021/07/29 04:25:03;;;;;;;10.48;8.63;;;16.10;99.90;;;;;;5052481;28;20374;-86
2021/07/29 04:27:29;;;;;;;11.77;9.03;;;16.00;99.90;;;;;;5052451;28;20763;-86
2021/07/29 04:29:55;;;;;;;11.35;9.95;;;16.10;99.90;;;;;;5070373;28;20413;-87
2021/07/29 04:32:20;;;;;;;9.63;8.73;;;16.20;99.90;;;;;;5070134;28;20955;-87
2021/07/29 04:34:47;;;;;;;10.77;8.90;;;16.20;99.90;;;;;;5069286;28;20926;-87
2021/07/29 04:37:13;;;;;;;9.60;8.70;;;16.30;99.90;;;;;;5052101;28;20382;-87
2021/07/29 04:39:41;;;;;;;11.30;9.10;;;16.40;99.90;;;;;;5051640;28;20378;-87
2021/07/29 04:42:07;;;;;;;10.77;8.43;;;16.40;99.90;;;;;;5052415;28;20473;-87
2021/07/29 04:44:33;;;;;;;10.70;8.30;;;16.40;99.90;;;;;;5051737;28;20406;-88
2021/07/29 04:46:58;;;;;;;9.02;8.20;;;16.50;99.90;;;;;;5052086;28;20413;-86
2021/07/29 04:49:24;;;;;;;9.13;8.27;;;16.70;99.90;;;;;;5051473;28;20808;-86
2021/07/29 04:51:49;;;;;;;8.88;7.93;;;16.90;99.90;;;;;;5051907;28;20366;-87
2021/07/29 04:54:15;;;;;;;8.97;6.90;;;17.10;99.90;;;;;;5069554;28;20422;-86
2021/07/29 04:56:41;;;;;;;7.72;6.55;;;17.30;99.90;;;;;;5069570;28;20468;-85
2021/07/29 04:59:06;;;;;;;7.88;5.78;;;17.40;99.90;;;;;;5051473;28;20895;-88
2021/07/29 05:01:36;;;;;;;8.63;6.60;;;17.60;99.90;;;;;;5069483;28;20460;-87
2021/07/29 05:04:02;;;;;;;6.33;5.73;;;17.60;99.90;;;;;;5069936;28;20378;-87
2021/07/29 05:06:28;;;;;;;6.05;5.43;;;17.70;99.90;;;;;;5069273;28;20386;-84
2021/07/29 05:08:54;;;;;;;7.37;5.77;;;18.00;99.90;;;;;;5051636;28;20382;-87
2021/07/29 05:11:19;;;;;;;6.80;5.43;;;18.30;99.90;;;;;;5069667;28;20406;-87
2021/07/29 05:13:45;;;;;;;6.60;5.50;;;18.50;99.90;;;;;;5068984;28;20462;-86
2021/07/29 05:16:10;;;;;;;6.55;5.50;;;18.60;99.90;;;;;;5051684;28;20425;-87
2021/07/29 05:18:36;;;;;;;8.63;5.70;;;18.60;99.90;;;;;;5051139;28;21256;-86
2021/07/29 05:21:03;;;;;;;7.70;5.65;;;18.70;99.90;;;;;;5069460;28;20396;-88
2021/07/29 05:23:29;;;;;;;6.38;5.55;;;18.70;99.90;;;;;;5051113;28;20452;-87
2021/07/29 05:25:55;;;;;;;7.20;5.75;;;18.80;99.90;;;;;;5051313;28;20374;-87
2021/07/29 05:28:20;;;;;;;6.13;5.30;;;18.90;99.90;;;;;;5051168;28;20378;-87
2021/07/29 05:30:46;;;;;;;6.78;5.65;;;18.90;99.90;;;;;;5051803;28;20378;-86
2021/07/29 05:33:11;;;;;;;8.20;5.60;;;19.00;99.90;;;;;;5069242;28;20397;-86
2021/07/29 05:35:37;;;;;;;6.60;5.40;;;19.10;99.90;;;;;;5051718;28;20732;-89
2021/07/29 05:38:03;;;;;;;7.20;5.47;;;19.10;99.90;;;;;;5069152;28;20409;-89
2021/07/29 05:40:28;;;;;;;7.47;4.97;;;19.10;99.90;;;;;;5051039;28;20378;-85
2021/07/29 05:42:54;;;;;;;6.38;5.03;;;19.20;99.90;;;;;;5068731;28;20374;-86
2021/07/29 05:45:20;;;;;;;8.50;5.20;;;19.10;99.90;;;;;;5050953;28;20374;-88
2021/07/29 05:47:46;;;;;;;5.95;5.35;;;19.20;99.90;;;;;;5051467;28;20378;-87
2021/07/29 05:50:11;;;;;;;9.80;5.10;;;19.30;99.90;;;;;;5051199;28;20374;-89
2021/07/29 05:52:37;;;;;;;6.30;4.67;;;19.40;99.90;;;;;;5051259;28;20952;-89
2021/07/29 05:55:04;;;;;;;6.32;5.10;;;19.40;99.90;;;;;;5051049;28;20500;-86
2021/07/29 05:57:29;;;;;;;5.40;4.90;;;19.50;99.90;;;;;;5050959;28;20378;-87
2021/07/29 05:59:55;;;;;;;8.07;4.45;;;19.60;99.90;;;;;;5051423;28;20431;-89
2021/07/29 06:02:20;;;;;;;8.87;4.67;;;19.70;99.90;;;;;;5051873;28;20382;-87
2021/07/29 06:04:46;;;;;;;6.05;4.28;;;19.60;99.90;;;;;;5050816;28;20381;-85
2021/07/29 06:07:11;;;;;;;7.00;4.20;;;19.70;99.90;;;;;;5051149;28;20929;-87
2021/07/29 06:09:37;;;;;;;6.30;4.47;;;19.90;99.90;;;;;;5068782;28;20374;-88
2021/07/29 06:12:03;;;;;;;5.38;4.40;;;20.00;99.90;;;;;;5052228;28;20366;-85
2021/07/29 06:14:29;;;;;;;7.18;4.45;;;20.20;99.90;;;;;;5050871;28;20427;-88
2021/07/29 06:16:54;;;;;;;6.85;4.22;;;20.40;99.90;;;;;;5051383;28;20540;-89
2021/07/29 06:19:29;;;;;;;5.47;4.07;;;20.40;99.90;;;;;;5069308;28;20374;-87
2021/07/29 06:21:59;;;;;;;6.93;3.83;;;20.60;99.90;;;;;;5051142;28;20469;-86
2021/07/29 06:24:26;;;;;;;3.90;3.50;;;20.60;99.90;;;;;;5050975;28;20374;-87
2021/07/29 06:26:52;;;;;;;4.93;3.77;;;20.50;99.90;;;;;;5051359;28;20406;-88
2021/07/29 06:29:18;;;;;;;8.70;3.70;;;20.70;99.90;;;;;;5068997;28;20382;-85
2021/07/29 06:31:44;;;;;;;6.90;3.30;;;20.70;99.90;;;;;;5050866;28;20381;-86
2021/07/29 06:34:09;;;;;;;4.30;3.55;;;20.90;99.90;;;;;;5050552;28;20447;-89
2021/07/29 06:36:35;;;;;;;5.37;3.47;;;21.10;99.90;;;;;;5050644;28;20421;-90
2021/07/29 06:39:01;;;;;;;3.97;2.90;;;21.30;99.90;;;;;;5050644;28;20374;-89
2021/07/29 06:41:27;;;;;;;3.63;3.03;;;21.60;99.90;;;;;;5068591;28;20497;-86
2021/07/29 06:43:53;;;;;;;8.00;3.25;;;21.90;99.90;;;;;;5050607;28;20374;-90
2021/07/29 06:46:18;;;;;;;5.93;2.92;;;22.30;99.90;;;;;;5050591;28;20780;-88
2021/07/29 06:48:44;;;;;;;4.65;2.90;;;22.60;99.90;;;;;;5068475;28;20461;-90
2021/07/29 06:51:13;;;;;;;4.57;2.90;;;22.90;99.90;;;;;;5050428;28;20883;-85
2021/07/29 06:53:41;;;;;;;4.88;2.97;;;23.30;99.90;;;;;;5050014;28;20406;-88
2021/07/29 06:56:08;;;;;;;5.35;2.95;;;23.60;99.90;;;;;;5050841;28;20539;-87
2021/07/29 06:58:35;;;;;;;5.72;3.22;;;23.90;99.90;;;;;;5054341;28;20385;-89
2021/07/29 07:01:04;;;;;;;4.57;2.95;;;24.10;99.90;;;;;;5072066;28;20386;-88
2021/07/29 07:03:30;;;;;;;9.30;3.13;;;24.40;99.90;;;;;;5054378;28;20866;-88
2021/07/29 07:06:09;;;;;;;3.50;2.60;;;24.30;99.90;;;;;;5054548;28;20378;-87
2021/07/29 07:08:35;;;;;;;4.07;3.07;;;24.30;99.90;;;;;;5054178;28;20390;-89
2021/07/29 07:11:02;;;;;;;6.57;3.22;;;24.30;99.90;;;;;;5055505;28;21569;-87
2021/07/29 07:13:28;;;;;;;4.35;3.10;;;24.10;99.90;;;;;;5055029;28;20448;-87
2021/07/29 07:15:54;;;;;;;5.00;3.00;;;23.90;99.90;;;;;;5053451;28;20532;-86
2021/07/29 07:18:20;;;;;;;5.43;3.10;;;23.80;99.90;;;;;;5053323;28;20470;-87
2021/07/29 07:20:46;;;;;;;7.28;3.08;;;23.80;99.90;;;;;;5052523;28;20472;-87
2021/07/29 07:23:11;;;;;;;5.82;3.10;;;23.70;99.90;;;;;;5053643;28;20955;-87
2021/07/29 07:25:40;;;;;;;4.73;3.00;;;23.80;99.90;;;;;;5053440;28;20731;-88
2021/07/29 07:28:06;;;;;;;6.15;3.00;;;23.90;99.90;;;;;;5053864;28;20381;-86
2021/07/29 07:30:32;;;;;;;4.30;2.80;;;24.00;99.90;;;;;;5053515;28;20382;-86
2021/07/29 07:32:58;;;;;;;4.50;3.00;;;24.00;99.90;;;;;;5071361;28;20381;-89
2021/07/29 07:35:24;;;;;;;4.55;2.80;;;24.00;99.90;;;;;;5053557;28;20421;-86
2021/07/29 07:37:52;;;;;;;7.07;3.45;;;23.80;99.90;;;;;;5053737;28;20406;-86
2021/07/29 07:40:18;;;;;;;5.15;3.00;;;23.90;99.90;;;;;;5053210;28;20386;-87
2021/07/29 07:42:43;;;;;;;5.43;3.00;;;24.10;99.90;;;;;;5053958;28;20389;-89
2021/07/29 07:45:09;;;;;;;5.37;3.10;;;24.10;99.90;;;;;;5073906;28;20378;-86
2021/07/29 07:47:35;;;;;;;8.15;3.28;;;24.30;99.90;;;;;;5055078;28;20458;-86
2021/07/29 07:50:02;;;;;;;5.20;3.10;;;24.60;99.90;;;;;;5054415;28;20383;-88
2021/07/29 07:52:28;;;;;;;6.22;2.85;;;24.60;99.90;;;;;;5054155;28;20377;-87
2021/07/29 07:54:54;;;;;;;5.65;3.28;;;24.10;99.90;;;;;;5052996;28;20414;-86
2021/07/29 07:57:19;;;;;;;6.27;3.33;;;23.70;99.90;;;;;;5072366;28;20467;-86
2021/07/29 07:59:45;;;;;;;5.32;3.17;;;23.30;99.90;;;;;;5070777;28;20868;-88
2021/07/29 08:02:11;;;;;;;6.70;3.00;;;23.10;99.90;;;;;;5070884;28;20854;-86
2021/07/29 08:04:37;;;;;;;4.82;3.30;;;23.00;99.90;;;;;;5052005;28;20594;-86
2021/07/29 08:07:03;;;;;;;4.70;3.00;;;23.30;99.90;;;;;;5052597;28;20755;-90
2021/07/29 08:09:28;;;;;;;5.30;3.10;;;23.50;99.90;;;;;;5053582;28;20389;-88
2021/07/29 08:11:58;;;;;;;4.40;3.20;;;23.40;99.90;;;;;;5054414;28;20444;-88
2021/07/29 08:14:24;;;;;;;4.40;2.70;;;23.20;99.90;;;;;;5071841;28;20901;-85
2021/07/29 08:16:49;;;;;;;4.17;3.10;;;23.40;99.90;;;;;;5052598;28;20390;-88
2021/07/29 08:19:16;;;;;;;3.97;2.80;;;23.90;99.90;;;;;;5062511;28;20463;-87
2021/07/29 08:21:43;;;;;;;4.75;2.80;;;24.60;99.90;;;;;;5086525;28;20981;-90
2021/07/29 08:24:08;;;;;;;5.47;3.10;;;25.00;99.90;;;;;;5085683;28;20388;-88
2021/07/29 08:26:35;;;;;;;4.82;2.80;;;25.50;99.90;;;;;;5064090;28;20394;-88
2021/07/29 08:29:00;;;;;;;4.75;2.80;;;25.30;99.90;;;;;;5067723;28;20381;-88
2021/07/29 08:31:26;;;;;;;4.97;3.10;;;24.90;99.90;;;;;;5067502;28;20396;-87
2021/07/29 08:33:52;;;;;;;5.78;3.17;;;24.40;99.90;;;;;;5065270;28;20894;-87
2021/07/29 08:36:18;;;;;;;8.00;3.23;;;24.00;99.90;;;;;;5082607;28;20394;-88
2021/07/29 08:38:46;;;;;;;5.85;3.08;;;23.80;99.90;;;;;;5063157;28;20384;-86
2021/07/29 08:41:14;;;;;;;4.55;3.30;;;23.80;99.90;;;;;;5067293;28;20379;-87
2021/07/29 08:43:40;;;;;;;6.38;3.20;;;24.20;99.90;;;;;;5063619;28;20384;-87
2021/07/29 08:46:09;;;;;;;4.63;2.90;;;24.40;99.90;;;;;;5063997;28;20892;-88
2021/07/29 08:48:38;;;;;;;6.03;3.20;;;24.40;99.90;;;;;;5067072;28;20378;-86
2021/07/29 08:51:05;;;;;;;6.30;3.00;;;24.20;99.90;;;;;;5064979;28;20372;-86
2021/07/29 08:53:30;;;;;;;5.47;2.97;;;23.80;99.90;;;;;;5062845;28;20405;-86
2021/07/29 08:55:56;;;;;;;6.55;3.00;;;23.80;99.90;;;;;;5083214;28;20465;-85
2021/07/29 08:58:22;;;;;;;6.80;2.97;;;23.80;99.90;;;;;;5065925;28;20391;-84
2021/07/29 09:01:09;;;;;;;4.53;2.92;;;23.80;99.90;;;;;;5065485;28;20391;-85
2021/07/29 09:03:40;;;;;;;7.07;2.97;;;24.00;99.90;;;;;;5073783;28;20386;-87
2021/07/29 09:06:09;;;;;;;4.55;2.90;;;24.20;99.90;;;;;;5061176;28;20439;-88
2021/07/29 09:08:50;;;;;;;8.75;2.90;;;24.20;99.90;;;;;;5060735;28;20402;-85
2021/07/29 09:11:37;;;;;;;5.55;2.80;;;24.30;99.90;;;;;;5064474;28;20474;-87
2021/07/29 09:14:18;;;;;;;7.53;2.70;;;24.50;99.90;;;;;;5078140;28;20413;-86
2021/07/29 09:16:54;;;;;;;6.78;3.15;;;24.60;99.90;;;;;;5062145;28;21086;-89
2021/07/29 09:19:36;;;;;;;5.10;3.00;;;24.60;99.90;;;;;;5065697;28;20392;-86
2021/07/29 09:22:15;;;;;;;4.20;2.85;;;24.40;99.90;;;;;;5084187;28;20396;-86
2021/07/29 09:25:07;;;;;;;5.03;2.65;;;24.40;99.90;;;;;;5082716;28;20419;-88
2021/07/29 09:27:39;;;;;;;3.80;2.78;;;24.40;99.90;;;;;;5066402;28;20378;-85
2021/07/29 09:30:18;;;;;;;5.88;2.90;;;24.30;99.90;;;;;;5066543;28;20388;-88
2021/07/29 09:33:13;;;;;;;5.13;2.90;;;24.30;99.90;;;;;;5064222;28;20483;-88
2021/07/29 09:35:47;;;;;;;4.10;2.85;;;24.60;99.90;;;;;;5065936;28;20447;-86
2021/07/29 09:38:21;;;;;;;5.45;2.90;;;;;;;;;;5063701;28;20416;-88
2021/07/29 09:40:48;;;;;;;6.53;3.17;;;24.80;99.90;;;;;;5080324;28;20451;-86
2021/07/29 09:43:16;;;;;;;5.88;3.15;;;25.00;99.90;;;;;;5068257;28;20421;-87
2021/07/29 09:45:53;;;;;;;6.15;2.95;;;25.30;99.90;;;;;;5092187;28;20395;-85
2021/07/29 09:48:21;;;;;;;4.90;2.72;;;25.70;99.90;;;;;;5073147;28;20369;-86
2021/07/29 09:50:48;;;;;;;6.53;3.13;;;25.80;99.90;;;;;;5072598;28;20457;-88
2021/07/29 09:53:14;;;;;;;8.77;3.17;;;25.50;99.90;;;;;;5090964;28;20886;-86
2021/07/29 09:55:40;;;;;;;3.58;2.85;;;25.50;99.90;;;;;;5089954;28;20396;-84
2021/07/29 09:58:06;;;;;;;5.30;2.90;;;25.40;99.40;;;;;;5066881;28;20403;-86
2021/07/29 10:00:37;;;;;;;3.90;2.50;;;25.40;99.90;;;;;;5055816;28;20378;-85
2021/07/29 10:03:05;;;;;;;6.10;2.63;;;25.50;98.90;;;;;;5057545;28;20388;-90
2021/07/29 10:05:39;;;;;;;6.18;2.45;;;25.70;99.30;;;;;;5064175;28;20419;-88
2021/07/29 10:08:15;;;;;;;5.32;2.33;;;26.00;98.50;;;;;;5060675;28;20765;-85
2021/07/29 10:10:44;;;;;;;6.95;2.30;;;26.30;98.10;;;;;;5078234;28;20393;-85
2021/07/29 10:13:10;;;;;;;5.80;2.47;;;26.60;98.10;;;;;;5072818;28;20392;-87
2021/07/29 10:15:40;;;;;;;5.10;2.63;;;26.60;96.00;;;;;;5069354;28;20393;-86
2021/07/29 10:18:13;;;;;;;6.75;2.28;;;26.50;96.40;;;;;;5058627;28;20443;-86
2021/07/29 10:20:41;;;;;;;5.50;2.30;;;26.20;95.60;;;;;;5049184;28;20386;-88
2021/07/29 10:23:33;;;;;;;6.28;2.00;;;25.40;92.80;;;;;;5049310;28;20374;-87
2021/07/29 10:26:13;;;;;;;5.00;1.88;;;25.30;93.10;;;;;;5052597;28;20381;-87
2021/07/29 10:28:43;;;;;;;4.73;1.93;;;25.10;93.70;;;;;;5052711;28;20446;-88
2021/07/29 10:31:19;;;;;;;4.30;1.60;;;24.90;93.60;;;;;;5051671;28;20378;-88
2021/07/29 10:33:50;;;;;;;4.63;1.83;;;24.50;92.70;;;;;;5057924;28;20394;-85
2021/07/29 10:36:48;;;;;;;3.78;1.80;;;24.30;93.60;;;;;;5075757;28;20867;-89
2021/07/29 10:39:49;;;;;;;10.52;2.08;;;24.50;95.70;;;;;;5077219;28;20479;-83
2021/07/29 10:42:28;;;;;;;5.37;1.80;;;24.80;93.70;;;;;;5028975;28;20388;-90
2021/07/29 10:45:04;;;;;;;4.47;1.90;;;25.00;95.20;;;;;;5101629;28;20384;-89
2021/07/29 10:47:38;;;;;;;5.10;2.30;;;25.20;95.80;;;;;;5099684;28;20380;-88
2021/07/29 10:50:26;;;;;;;3.05;2.20;;;25.40;95.90;;;;;;5071484;28;20392;-88
2021/07/29 10:56:11;;;;;;;5.05;2.35;;;25.90;97.00;;;;;;5030725;28;20519;-89
2021/07/29 10:58:45;;;;;;;3.40;2.10;;;25.80;95.20;;;;;;5068920;28;20914;-86
2021/07/29 11:01:12;;;;;;;2.55;2.00;;;25.60;95.50;;;;;;5067807;28;20380;-85
2021/07/29 11:03:45;;;;;;;7.15;2.00;;;25.80;95.40;;;;;;5068931;28;20750;-84
2021/07/29 11:06:13;;;;;;;2.70;2.05;;;25.80;94.00;;;;;;5067312;28;20388;-86
2021/07/29 11:08:41;;;;;;;3.50;1.83;;;25.60;93.80;;;;;;5088476;28;20403;-88
2021/07/29 11:11:07;;;;;;;3.88;1.63;;;25.30;91.70;;;;;;5065931;28;20470;-88
2021/07/29 11:13:35;;;;;;;3.28;1.88;;;25.40;91.40;;;;;;5085100;28;20396;-90
2021/07/29 11:16:55;;;;;;;;;;;;;;;;;;;;;
2021/07/29 11:19:21;;;;;;;5.70;1.90;;;25.80;92.10;;;;;;5056657;28;20461;-87
2021/07/29 11:22:21;;;;;;;29.48;3.80;;;25.50;90.10;;;;;;5069222;28;20443;-88
2021/07/29 11:25:07;;;;;;;10.50;2.17;;;25.30;87.90;;;;;;4987619;28;20433;-88
2021/07/29 11:28:31;;;;;;;7.05;1.95;;;25.20;88.80;;;;;;5061313;28;20500;-88
2021/07/29 11:31:11;;;;;;;6.53;2.07;;;25.10;88.90;;;;;;5065913;28;20413;-88
2021/07/29 11:33:38;;;;;;;3.97;1.60;;;25.10;90.20;;;;;;5077614;28;20453;-86
2021/07/29 11:36:48;;;;;;;3.83;1.48;;;25.20;88.40;;;;;;5068846;28;20386;-87
2021/07/29 11:39:41;;;;;;;4.28;1.80;;;25.40;90.20;;;;;;5070047;28;20412;-86
2021/07/29 11:42:39;;;;;;;4.88;1.70;;;25.30;89.00;;;;;;5084372;28;20401;-86
2021/07/29 11:45:24;;;;;;;10.77;1.73;;;25.20;88.50;;;;;;5054013;28;20382;-89
2021/07/29 11:47:50;;;;;;;9.03;1.73;;;25.60;85.50;;;;;;5054410;28;20384;-86
2021/07/29 11:50:16;;;;;;;10.52;2.28;;;25.60;84.70;;;;;;5071687;28;20417;-87
2021/07/29 11:52:52;;;;;;;5.57;1.83;;;25.50;84.70;;;;;;5071754;28;20698;-88
2021/07/29 11:55:20;;;;;;;5.10;1.60;;;25.60;85.00;;;;;;5053856;28;20413;-88
2021/07/29 11:57:46;;;;;;;5.73;1.60;;;25.30;85.60;;;;;;5072139;28;20879;-87
2021/07/29 12:00:27;;;;;;;3.38;1.48;;;25.50;87.60;;;;;;5053371;28;20381;-90
2021/07/29 12:02:54;;;;;;;3.45;1.60;;;25.70;86.20;;;;;;5051474;28;20439;-87
2021/07/29 12:05:21;;;;;;;4.53;1.70;;;25.50;86.40;;;;;;5086179;28;20390;-89
2021/07/29 12:07:48;;;;;;;4.03;1.60;;;25.20;85.80;;;;;;5055232;28;20403;-87
2021/07/29 12:10:17;;;;;;;7.70;1.95;;;25.40;86.60;;;;;;5067159;28;20376;-88
2021/07/29 12:12:42;;;;;;;5.22;1.70;;;25.60;87.80;;;;;;5060340;28;20385;-89
2021/07/29 12:15:12;;;;;;;12.05;2.53;;;25.70;88.40;;;;;;5065542;28;20400;-89
2021/07/29 12:17:39;;;;;;;10.45;2.40;;;25.70;87.60;;;;;;5067965;28;20384;-89
2021/07/29 12:20:06;;;;;;;6.07;2.27;;;25.60;87.00;;;;;;5069560;28;21015;-89
2021/07/29 12:22:42;;;;;;;6.38;1.98;;;25.40;87.50;;;;;;5069350;28;20391;-88
2021/07/29 12:25:30;;;;;;;5.32;2.00;;;25.20;87.00;;;;;;5056951;28;20398;-88
2021/07/29 12:27:58;;;;;;;7.22;2.28;;;24.90;88.50;;;;;;5050933;28;20382;-89
2021/07/29 12:30:43;;;;;;;8.93;2.20;;;24.70;89.20;;;;;;5071565;28;20378;-89
2021/07/29 12:33:17;;;;;;;6.10;2.00;;;24.60;90.30;;;;;;5051248;28;20481;-90
2021/07/29 12:36:00;;;;;;;6.53;2.23;;;24.70;91.10;;;;;;5051907;28;21463;-90
2021/07/29 12:38:37;;;;;;;6.68;1.92;;;25.10;87.90;;;;;;5052805;28;20414;-87
2021/07/29 12:41:04;;;;;;;6.53;1.88;;;25.40;89.70;;;;;;5053209;28;20392;-89
2021/07/29 12:43:31;;;;;;;8.50;2.03;;;25.80;90.60;;;;;;5051443;28;20436;-85
2021/07/29 12:46:02;;;;;;;7.57;2.00;;;26.10;90.00;;;;;;5070918;28;20374;-88
2021/07/29 12:48:29;;;;;;;4.30;2.03;;;26.40;87.10;;;;;;5052086;28;21430;-88
2021/07/29 12:50:58;;;;;;;4.40;1.80;;;26.30;82.90;;;;;;5053066;28;20883;-87
2021/07/29 12:53:24;;;;;;;3.92;1.95;;;26.30;86.00;;;;;;5052726;28;20776;-89
2021/07/29 12:55:51;;;;;;;5.70;1.90;;;26.20;84.80;;;;;;5051370;28;20385;-88
2021/07/29 12:58:19;;;;;;;5.27;2.20;;;26.30;86.00;;;;;;5068440;28;20382;-89